Egegik Airport


Codes: PAII/EGX
Name: Egegik Airport
City: Egegik
Country: United States
Elevation: 92 ft.
Wikipedia:

Photos at Egegik Airport


   Photos courtesy of SpottingLog. You can add your own sightings and photos by signing up for a free trial today.



No photos found.

Weather at Egegik Airport


Time (UTC)DescriptionTempratureWindCloud coverageVisibilityPressureHumidity
16-Jun-2024 03:00Few Clouds14°C11 mph, SW12%10000m1021hPa73%
16-Jun-2024 06:00Few Clouds12°C9 mph, SW19%10000m1020hPa79%
16-Jun-2024 09:00Scattered Clouds8°C9 mph, SW31%10000m1021hPa86%
16-Jun-2024 12:00Scattered Clouds8°C9 mph, SW33%10000m1021hPa85%
16-Jun-2024 15:00Scattered Clouds8°C9 mph, S36%10000m1020hPa83%
16-Jun-2024 18:00Scattered Clouds12°C9 mph, SW28%10000m1020hPa71%
16-Jun-2024 21:00Clear Sky14°C9 mph, SW2%10000m1020hPa66%
17-Jun-2024 00:00Clear Sky15°C4 mph, W4%10000m1018hPa64%
17-Jun-2024 03:00Clear Sky15°C2 mph, SE5%10000m1017hPa64%
17-Jun-2024 06:00Scattered Clouds12°C13 mph, SE26%10000m1017hPa67%
17-Jun-2024 09:00Broken Clouds11°C9 mph, SE74%10000m1017hPa71%
17-Jun-2024 12:00Overcast Clouds8°C9 mph, SE86%10000m1016hPa79%
17-Jun-2024 15:00Broken Clouds7°C9 mph, SE54%10000m1016hPa84%
17-Jun-2024 18:00Scattered Clouds11°C11 mph, SE28%10000m1016hPa65%
17-Jun-2024 21:00Clear Sky14°C13 mph, SE1%10000m1015hPa51%
18-Jun-2024 00:00Clear Sky15°C16 mph, SE2%10000m1015hPa47%
18-Jun-2024 03:00Clear Sky14°C16 mph, SE0%10000m1014hPa51%
18-Jun-2024 06:00Few Clouds10°C16 mph, SE15%10000m1014hPa72%
18-Jun-2024 09:00Overcast Clouds8°C16 mph, SE100%10000m1015hPa83%
18-Jun-2024 12:00Overcast Clouds8°C18 mph, SE100%10000m1014hPa80%
18-Jun-2024 15:00Light Rain8°C18 mph, SE100%10000m1014hPa83%
18-Jun-2024 18:00Light Rain9°C20 mph, SE100%10000m1014hPa77%
18-Jun-2024 21:00Overcast Clouds11°C20 mph, SE100%10000m1014hPa71%
19-Jun-2024 00:00Overcast Clouds11°C22 mph, SE98%10000m1014hPa71%
19-Jun-2024 03:00Overcast Clouds10°C22 mph, SE100%10000m1013hPa77%
19-Jun-2024 06:00Overcast Clouds9°C18 mph, SE100%10000m1014hPa81%
19-Jun-2024 09:00Overcast Clouds7°C16 mph, SE100%10000m1014hPa86%
19-Jun-2024 12:00Overcast Clouds8°C16 mph, SE100%10000m1014hPa83%
19-Jun-2024 15:00Overcast Clouds8°C13 mph, SE100%10000m1014hPa82%
19-Jun-2024 18:00Overcast Clouds10°C13 mph, SE100%10000m1015hPa72%
19-Jun-2024 21:00Overcast Clouds13°C11 mph, SE99%10000m1015hPa62%
20-Jun-2024 00:00Light Rain13°C7 mph, SE99%10000m1014hPa60%
20-Jun-2024 03:00Light Rain13°C2 mph, NW100%10000m1015hPa65%
20-Jun-2024 06:00Overcast Clouds10°C2 mph, NW100%10000m1015hPa79%
20-Jun-2024 09:00Light Rain10°C4 mph, W100%10000m1015hPa83%
20-Jun-2024 12:00Light Rain9°C7 mph, NW100%10000m1015hPa92%
20-Jun-2024 15:00Light Rain9°C7 mph, NW100%10000m1015hPa90%
20-Jun-2024 18:00Overcast Clouds11°C7 mph, NW100%10000m1015hPa80%
20-Jun-2024 21:00Overcast Clouds13°C7 mph, NW100%10000m1014hPa71%
21-Jun-2024 00:00Light Rain12°C7 mph, W100%10000m1014hPa74%